createdAt,value
2023-01-25T00:00:53.662Z,2.60
2023-01-25T00:03:21.497Z,2.57
2023-01-25T00:05:49.264Z,2.58
2023-01-25T00:08:17.929Z,2.58
2023-01-25T00:10:45.684Z,2.57
2023-01-25T00:13:13.424Z,2.56
2023-01-25T00:15:41.107Z,2.56
2023-01-25T00:18:08.879Z,2.55
2023-01-25T00:20:36.650Z,2.53
2023-01-25T00:23:04.351Z,2.52
2023-01-25T00:25:32.035Z,2.51
2023-01-25T00:27:59.759Z,2.52
2023-01-25T00:30:27.506Z,2.51
2023-01-25T00:33:19.253Z,2.51
2023-01-25T00:35:47.026Z,2.48
2023-01-25T00:38:34.935Z,2.48
2023-01-25T00:41:02.710Z,2.49
2023-01-25T00:43:30.408Z,2.51
2023-01-25T00:46:04.427Z,2.53
2023-01-25T00:48:32.226Z,2.56
2023-01-25T00:51:03.524Z,2.57
2023-01-25T00:53:31.351Z,2.57
2023-01-25T00:55:59.132Z,2.58
2023-01-25T00:58:27.045Z,2.58
2023-01-25T01:00:55.980Z,2.59
2023-01-25T01:03:24.187Z,2.59
2023-01-25T01:06:09.748Z,2.60
2023-01-25T01:08:41.312Z,2.62
2023-01-25T01:11:12.414Z,2.68
2023-01-25T01:13:41.255Z,2.68
2023-01-25T01:16:13.109Z,2.71
2023-01-25T01:18:44.199Z,2.71
2023-01-25T01:21:13.454Z,2.71
2023-01-25T01:23:41.932Z,2.71
2023-01-25T01:26:12.934Z,2.69
2023-01-25T01:28:41.375Z,2.67
2023-01-25T01:31:21.295Z,2.67
2023-01-25T01:33:53.809Z,2.62
2023-01-25T01:36:24.032Z,2.58
2023-01-25T01:38:51.936Z,2.57
2023-01-25T01:41:20.370Z,2.58
2023-01-25T01:43:48.503Z,2.56
2023-01-25T01:46:22.466Z,2.56
2023-01-25T01:48:52.416Z,2.56
2023-01-25T01:51:35.395Z,2.57
2023-01-25T01:54:09.726Z,2.56
2023-01-25T01:56:47.517Z,2.57
2023-01-25T01:59:15.467Z,2.55
2023-01-25T02:01:44.747Z,2.55
2023-01-25T02:04:14.116Z,2.58
2023-01-25T02:06:54.085Z,2.60
2023-01-25T02:09:24.725Z,2.62
2023-01-25T02:11:53.946Z,2.63
2023-01-25T02:14:22.116Z,2.61
2023-01-25T02:16:49.929Z,2.61
2023-01-25T02:19:50.369Z,2.63
2023-01-25T02:22:24.134Z,2.64
2023-01-25T02:25:07.966Z,2.61
2023-01-25T02:27:39.818Z,2.58
2023-01-25T02:30:08.411Z,2.58
2023-01-25T02:32:36.390Z,2.59
2023-01-25T02:35:04.204Z,2.58
2023-01-25T02:37:32.023Z,2.55
2023-01-25T02:39:59.715Z,2.53
2023-01-25T02:42:31.953Z,2.50
2023-01-25T02:44:59.720Z,2.48
2023-01-25T02:47:27.501Z,2.45
2023-01-25T02:49:55.247Z,2.42
2023-01-25T02:52:22.996Z,2.40
2023-01-25T02:54:50.825Z,2.40
2023-01-25T02:57:18.873Z,2.34
2023-01-25T02:59:46.989Z,2.35
2023-01-25T03:02:15.390Z,2.32
2023-01-25T03:04:43.199Z,2.32
2023-01-25T03:07:10.867Z,2.31
2023-01-25T03:09:38.786Z,2.28
2023-01-25T03:12:07.127Z,2.26
2023-01-25T03:14:34.946Z,2.24
2023-01-25T03:17:02.599Z,2.23
2023-01-25T03:19:30.393Z,2.24
2023-01-25T03:22:00.181Z,2.23
2023-01-25T03:24:28.095Z,2.22
2023-01-25T03:27:14.591Z,2.21
2023-01-25T03:29:42.907Z,2.24
2023-01-25T03:32:10.695Z,2.25
2023-01-25T03:34:38.597Z,2.26
2023-01-25T03:37:06.284Z,2.26
2023-01-25T03:39:33.915Z,2.27
2023-01-25T03:42:01.650Z,2.28
2023-01-25T03:44:29.265Z,2.30
2023-01-25T03:46:57.087Z,2.29
2023-01-25T03:49:24.871Z,2.31
2023-01-25T03:51:52.681Z,2.30
2023-01-25T03:54:20.358Z,2.28
2023-01-25T03:56:48.043Z,2.26
2023-01-25T03:59:15.969Z,2.25
2023-01-25T04:01:43.774Z,2.25
2023-01-25T04:04:11.541Z,2.26
2023-01-25T04:06:39.503Z,2.23
2023-01-25T04:09:07.897Z,2.26
2023-01-25T04:11:35.605Z,2.25
2023-01-25T04:14:03.341Z,2.23
2023-01-25T04:16:32.569Z,2.20
2023-01-25T04:19:00.384Z,2.19
2023-01-25T04:21:28.170Z,2.22
2023-01-25T04:23:55.852Z,2.20
2023-01-25T04:26:23.662Z,2.20
2023-01-25T04:28:51.492Z,2.21
2023-01-25T04:31:19.387Z,2.23
2023-01-25T04:33:47.159Z,2.21
2023-01-25T04:36:14.850Z,2.22
2023-01-25T04:38:43.437Z,2.25
2023-01-25T04:41:11.099Z,2.23
2023-01-25T04:43:38.816Z,2.24
2023-01-25T04:46:06.738Z,2.25
2023-01-25T04:48:34.838Z,2.24
2023-01-25T04:51:02.537Z,2.21
2023-01-25T04:53:30.295Z,2.23
2023-01-25T04:55:57.995Z,2.22
2023-01-25T04:58:25.690Z,2.21
2023-01-25T05:00:53.501Z,2.22
2023-01-25T05:03:21.202Z,2.21
2023-01-25T05:05:49.232Z,2.22
2023-01-25T05:08:16.996Z,2.22
2023-01-25T05:10:45.328Z,2.19
2023-01-25T05:13:13.082Z,2.22
2023-01-25T05:15:40.835Z,2.21
2023-01-25T05:18:08.553Z,2.19
2023-01-25T05:20:36.385Z,2.18
2023-01-25T05:23:04.095Z,2.16
2023-01-25T05:25:50.262Z,2.15
2023-01-25T05:28:17.965Z,2.18
2023-01-25T05:30:45.799Z,2.21
2023-01-25T05:33:13.609Z,2.20
2023-01-25T05:35:41.341Z,2.17
2023-01-25T05:38:08.998Z,2.20
2023-01-25T05:40:36.724Z,2.18
2023-01-25T05:43:04.448Z,2.20
2023-01-25T05:45:32.356Z,2.21
2023-01-25T05:48:00.781Z,2.20
2023-01-25T05:50:28.998Z,2.18
2023-01-25T05:52:56.744Z,2.19
2023-01-25T05:55:24.630Z,2.19
2023-01-25T05:57:52.317Z,2.18
2023-01-25T06:00:20.507Z,2.17
2023-01-25T06:02:48.343Z,2.18
2023-01-25T06:05:16.216Z,2.17
2023-01-25T06:07:43.847Z,2.15
2023-01-25T06:10:12.041Z,2.13
2023-01-25T06:12:40.879Z,2.11
2023-01-25T06:15:09.485Z,2.11
2023-01-25T06:17:37.392Z,2.12
2023-01-25T06:20:05.586Z,2.12
2023-01-25T06:22:33.313Z,2.09
2023-01-25T06:25:00.980Z,2.08
2023-01-25T06:27:29.656Z,2.09
2023-01-25T06:29:57.346Z,2.11
2023-01-25T06:32:27.025Z,2.12
2023-01-25T06:34:54.694Z,2.13
2023-01-25T06:37:23.914Z,2.13
2023-01-25T06:39:51.764Z,2.13
2023-01-25T06:42:19.478Z,2.13
2023-01-25T06:44:47.182Z,2.09
2023-01-25T06:47:14.926Z,2.08
2023-01-25T06:49:42.705Z,2.08
2023-01-25T06:52:10.341Z,2.06
2023-01-25T06:54:38.181Z,2.09
2023-01-25T06:57:06.015Z,2.12
2023-01-25T06:59:33.769Z,2.14
2023-01-25T07:02:01.589Z,2.09
2023-01-25T07:04:29.424Z,2.09
2023-01-25T07:06:57.259Z,2.09
2023-01-25T07:09:25.684Z,2.08
2023-01-25T07:11:53.347Z,2.17
2023-01-25T07:14:21.036Z,2.17
2023-01-25T07:16:48.743Z,2.23
2023-01-25T07:19:16.473Z,2.26
2023-01-25T07:21:44.394Z,2.29
2023-01-25T07:24:15.895Z,2.28
2023-01-25T07:26:44.038Z,2.29
2023-01-25T07:29:17.043Z,2.26
2023-01-25T07:31:44.872Z,2.26
2023-01-25T07:34:14.358Z,2.28
2023-01-25T07:36:44.771Z,2.28
2023-01-25T07:39:12.914Z,2.29
2023-01-25T07:41:41.614Z,2.35
2023-01-25T07:44:11.069Z,2.37
2023-01-25T07:46:38.777Z,2.43
2023-01-25T07:49:06.484Z,2.49
2023-01-25T07:51:34.229Z,2.50
2023-01-25T07:54:04.989Z,2.51
2023-01-25T07:56:33.961Z,2.51
2023-01-25T07:59:06.053Z,2.57
2023-01-25T08:01:35.394Z,2.55
2023-01-25T08:04:05.071Z,2.54
2023-01-25T08:06:39.928Z,2.55
2023-01-25T08:09:15.313Z,2.54
2023-01-25T08:11:43.329Z,2.52
2023-01-25T08:14:12.373Z,2.52
2023-01-25T08:16:40.054Z,2.52
2023-01-25T08:19:08.666Z,2.52
2023-01-25T08:21:36.567Z,2.51
2023-01-25T08:24:06.909Z,2.53
2023-01-25T08:26:36.385Z,2.51
2023-01-25T08:29:05.142Z,2.51
2023-01-25T08:31:35.714Z,2.49
2023-01-25T08:34:04.356Z,2.48
2023-01-25T08:36:32.099Z,2.46
2023-01-25T08:39:06.707Z,2.47
2023-01-25T08:41:35.848Z,2.46
2023-01-25T08:44:03.811Z,2.47
2023-01-25T08:46:34.175Z,2.42
2023-01-25T08:49:03.090Z,2.42
2023-01-25T08:51:32.697Z,2.40
2023-01-25T08:54:05.505Z,2.39
2023-01-25T08:56:33.563Z,2.37
2023-01-25T08:59:01.332Z,2.39
2023-01-25T09:01:28.991Z,2.39
2023-01-25T09:03:56.996Z,2.36
2023-01-25T09:06:24.851Z,2.36
2023-01-25T09:08:52.557Z,2.35
2023-01-25T09:11:22.602Z,2.40
2023-01-25T09:13:50.366Z,2.40
2023-01-25T09:16:23.737Z,2.40
2023-01-25T09:18:51.502Z,2.40
2023-01-25T09:21:20.194Z,2.45
2023-01-25T09:24:08.625Z,2.42
2023-01-25T09:26:43.087Z,2.48
2023-01-25T09:29:13.759Z,2.51
2023-01-25T09:31:44.618Z,2.53
2023-01-25T09:34:16.695Z,2.56
2023-01-25T09:36:44.434Z,2.59
2023-01-25T09:39:15.380Z,2.58
2023-01-25T09:42:06.596Z,2.63
2023-01-25T09:44:59.056Z,2.68
2023-01-25T09:47:48.240Z,2.70
2023-01-25T09:50:34.649Z,2.68
2023-01-25T09:53:22.551Z,2.69
2023-01-25T09:56:12.192Z,2.70
2023-01-25T09:58:44.274Z,2.66
2023-01-25T10:01:38.682Z,2.64
2023-01-25T10:04:18.953Z,2.63
2023-01-25T10:07:00.133Z,2.63
2023-01-25T10:09:55.423Z,2.64
2023-01-25T10:12:26.221Z,2.68
2023-01-25T10:14:54.203Z,2.68
2023-01-25T10:17:36.249Z,2.69
2023-01-25T10:20:25.672Z,2.66
2023-01-25T10:23:24.312Z,2.64
2023-01-25T10:25:54.570Z,2.65
2023-01-25T10:28:38.474Z,2.64
2023-01-25T10:31:21.514Z,2.66
2023-01-25T10:33:50.478Z,2.62
2023-01-25T10:36:29.997Z,2.63
2023-01-25T10:39:02.270Z,2.62
2023-01-25T10:41:42.714Z,2.65
2023-01-25T10:44:23.486Z,2.68
2023-01-25T10:47:21.959Z,2.65
2023-01-25T10:49:56.048Z,2.67
2023-01-25T10:52:24.999Z,2.68
2023-01-25T10:55:17.781Z,2.64
2023-01-25T10:57:49.051Z,2.65
2023-01-25T11:00:37.596Z,2.68
2023-01-25T11:03:05.971Z,2.64
2023-01-25T11:05:39.000Z,2.61
2023-01-25T11:08:25.687Z,2.59
2023-01-25T11:10:54.596Z,2.59
2023-01-25T11:13:25.383Z,2.59
2023-01-25T11:15:56.939Z,2.55
2023-01-25T11:18:26.401Z,2.53
2023-01-25T11:21:19.499Z,2.49
2023-01-25T11:24:05.913Z,2.44
2023-01-25T11:26:35.972Z,2.41
2023-01-25T11:29:17.515Z,2.43
2023-01-25T11:31:57.207Z,2.37
2023-01-25T11:34:30.489Z,2.41
2023-01-25T11:37:29.791Z,2.44
2023-01-25T11:40:22.414Z,2.45
2023-01-25T11:43:03.315Z,2.45
2023-01-25T11:45:40.175Z,2.48
2023-01-25T11:48:36.099Z,2.50
2023-01-25T11:51:09.716Z,2.51
2023-01-25T11:53:59.052Z,2.54
2023-01-25T11:56:45.272Z,2.55
2023-01-25T11:59:37.492Z,2.58
2023-01-25T12:02:47.961Z,2.61
2023-01-25T12:05:24.645Z,2.61
2023-01-25T12:08:37.163Z,2.59
2023-01-25T12:11:22.634Z,2.61
2023-01-25T12:14:09.944Z,2.65
2023-01-25T12:17:16.291Z,2.64
2023-01-25T12:20:22.907Z,2.62
2023-01-25T12:23:03.599Z,2.63
2023-01-25T12:25:44.079Z,2.65
2023-01-25T12:28:29.969Z,2.69
2023-01-25T12:31:09.885Z,2.70
2023-01-25T12:34:04.663Z,2.70
2023-01-25T12:36:38.702Z,2.64
2023-01-25T12:39:13.656Z,2.68
2023-01-25T12:41:41.826Z,2.64
2023-01-25T12:44:14.250Z,2.63
2023-01-25T12:46:52.304Z,2.63
2023-01-25T12:49:43.097Z,2.66
2023-01-25T12:52:33.107Z,2.62
2023-01-25T12:55:13.523Z,2.61
2023-01-25T12:57:59.599Z,2.60
2023-01-25T13:00:44.773Z,2.57
2023-01-25T13:03:34.285Z,2.59
2023-01-25T13:06:11.082Z,2.61
2023-01-25T13:08:43.475Z,2.62
2023-01-25T13:11:18.400Z,2.65
2023-01-25T13:13:46.158Z,2.70
2023-01-25T13:16:32.138Z,2.68
2023-01-25T13:19:00.383Z,2.68
2023-01-25T13:21:46.202Z,2.70
2023-01-25T13:24:21.638Z,2.67
2023-01-25T13:26:55.425Z,2.63
2023-01-25T13:29:39.747Z,2.58
2023-01-25T13:32:14.191Z,2.54
2023-01-25T13:34:45.464Z,2.55
2023-01-25T13:37:30.188Z,2.53
2023-01-25T13:40:09.214Z,2.50
2023-01-25T13:42:39.899Z,2.48
2023-01-25T13:45:20.138Z,2.47
2023-01-25T13:48:06.156Z,2.45
2023-01-25T13:50:41.118Z,2.45
2023-01-25T13:53:17.522Z,2.50
2023-01-25T13:55:48.823Z,2.49
2023-01-25T13:58:27.338Z,2.49
2023-01-25T14:01:07.635Z,2.48
2023-01-25T14:03:36.881Z,2.47
2023-01-25T14:06:05.474Z,2.49
2023-01-25T14:08:33.535Z,2.46
2023-01-25T14:11:01.459Z,2.47
2023-01-25T14:13:29.124Z,2.42
2023-01-25T14:16:00.477Z,2.38
2023-01-25T14:18:35.346Z,2.35
2023-01-25T14:21:21.038Z,2.36
2023-01-25T14:23:49.907Z,2.32
2023-01-25T14:26:26.886Z,2.32
2023-01-25T14:29:01.752Z,2.34
2023-01-25T14:31:36.954Z,2.31
2023-01-25T14:34:07.201Z,2.35
2023-01-25T14:36:35.916Z,2.31
2023-01-25T14:39:14.719Z,2.32
2023-01-25T14:41:51.651Z,2.32
2023-01-25T14:44:27.331Z,2.31
2023-01-25T14:47:30.044Z,2.32
2023-01-25T14:50:33.434Z,2.32
2023-01-25T14:53:09.945Z,2.30
2023-01-25T14:55:38.557Z,2.31
2023-01-25T14:58:08.528Z,2.35
2023-01-25T15:00:37.259Z,2.34
2023-01-25T15:03:15.419Z,2.36
2023-01-25T15:05:47.601Z,2.40
2023-01-25T15:08:28.021Z,2.43
2023-01-25T15:11:20.061Z,2.41
2023-01-25T15:13:47.935Z,2.38
2023-01-25T15:16:17.568Z,2.35
2023-01-25T15:18:52.359Z,2.33
2023-01-25T15:21:41.397Z,2.35
2023-01-25T15:24:13.388Z,2.34
2023-01-25T15:26:41.264Z,2.33
2023-01-25T15:29:22.130Z,2.28
2023-01-25T15:31:51.830Z,2.25
2023-01-25T15:34:27.313Z,2.28
2023-01-25T15:36:55.062Z,2.25
2023-01-25T15:39:22.841Z,2.24
2023-01-25T15:41:50.714Z,2.24
2023-01-25T15:44:21.152Z,2.21
2023-01-25T15:46:52.683Z,2.24
2023-01-25T15:49:28.944Z,2.23
2023-01-25T15:51:57.571Z,2.25
2023-01-25T15:54:25.568Z,2.25
2023-01-25T15:56:57.237Z,2.26
2023-01-25T15:59:25.344Z,2.25
2023-01-25T16:01:53.331Z,2.24
2023-01-25T16:04:21.027Z,2.27
2023-01-25T16:06:51.950Z,2.23
2023-01-25T16:09:21.354Z,2.17
2023-01-25T16:11:54.073Z,2.21
2023-01-25T16:14:24.626Z,2.19
2023-01-25T16:16:54.056Z,2.17
2023-01-25T16:19:24.382Z,2.16
2023-01-25T16:21:52.984Z,2.13
2023-01-25T16:24:20.757Z,2.12
2023-01-25T16:26:56.785Z,2.10
2023-01-25T16:29:25.143Z,2.07
2023-01-25T16:31:53.763Z,2.04
2023-01-25T16:34:22.298Z,2.01
2023-01-25T16:36:54.278Z,1.99
2023-01-25T16:39:24.592Z,1.96
2023-01-25T16:41:52.647Z,1.98
2023-01-25T16:44:20.998Z,1.98
2023-01-25T16:46:52.314Z,1.97
2023-01-25T16:49:28.342Z,1.91
2023-01-25T16:51:56.499Z,1.91
2023-01-25T16:54:24.907Z,1.92
2023-01-25T16:56:54.385Z,1.96
2023-01-25T16:59:23.447Z,1.94
2023-01-25T17:01:51.332Z,1.89
2023-01-25T17:04:19.918Z,1.89
2023-01-25T17:06:50.651Z,1.89
2023-01-25T17:09:25.453Z,1.90
2023-01-25T17:11:54.628Z,1.92
2023-01-25T17:14:23.189Z,1.91
2023-01-25T17:16:53.318Z,1.91
2023-01-25T17:19:21.616Z,1.88
2023-01-25T17:21:49.446Z,1.89
2023-01-25T17:24:19.374Z,1.89
2023-01-25T17:26:47.480Z,1.86
2023-01-25T17:29:15.297Z,1.87
2023-01-25T17:31:43.312Z,1.89
2023-01-25T17:34:17.111Z,1.84
2023-01-25T17:36:45.711Z,1.82
2023-01-25T17:39:16.461Z,1.83
2023-01-25T17:41:45.248Z,1.83
2023-01-25T17:44:13.989Z,1.83
2023-01-25T17:46:41.814Z,1.86
2023-01-25T17:49:14.065Z,1.85
2023-01-25T17:51:41.819Z,1.87
2023-01-25T17:54:09.890Z,1.83
2023-01-25T17:56:39.526Z,1.84
2023-01-25T17:59:10.071Z,1.86
2023-01-25T18:01:37.843Z,1.82
2023-01-25T18:04:09.758Z,1.80
2023-01-25T18:06:37.783Z,1.78
2023-01-25T18:09:07.751Z,1.79
2023-01-25T18:11:37.868Z,1.79
2023-01-25T18:14:09.394Z,1.77
2023-01-25T18:16:39.880Z,1.75
2023-01-25T18:19:08.969Z,1.68
2023-01-25T18:21:37.667Z,1.66
2023-01-25T18:24:35.763Z,1.61
2023-01-25T18:27:18.508Z,1.61
2023-01-25T18:29:59.309Z,1.62
2023-01-25T18:32:28.077Z,1.60
2023-01-25T18:34:55.787Z,1.66
2023-01-25T18:37:26.535Z,1.70
2023-01-25T18:39:55.808Z,1.74
2023-01-25T18:42:25.738Z,1.74
2023-01-25T18:44:53.730Z,1.74
2023-01-25T18:47:23.441Z,1.72
2023-01-25T18:49:53.115Z,1.70
2023-01-25T18:52:23.128Z,1.73
2023-01-25T18:54:50.930Z,1.67
2023-01-25T18:57:19.186Z,1.65
2023-01-25T18:59:47.101Z,1.67
2023-01-25T19:02:16.388Z,1.66
2023-01-25T19:04:44.130Z,1.65
2023-01-25T19:07:12.026Z,1.65
2023-01-25T19:09:39.998Z,1.64
2023-01-25T19:12:08.010Z,1.66
2023-01-25T19:14:35.772Z,1.63
2023-01-25T19:17:03.598Z,1.67
2023-01-25T19:19:33.291Z,1.64
2023-01-25T19:22:01.899Z,1.60
2023-01-25T19:24:29.727Z,1.59
2023-01-25T19:26:57.763Z,1.56
2023-01-25T19:29:25.604Z,1.52
2023-01-25T19:31:53.284Z,1.47
2023-01-25T19:34:21.186Z,1.48
2023-01-25T19:36:51.204Z,1.49
2023-01-25T19:39:19.166Z,1.48
2023-01-25T19:41:47.340Z,1.48
2023-01-25T19:44:15.898Z,1.52
2023-01-25T19:46:44.268Z,1.52
2023-01-25T19:49:14.343Z,1.58
2023-01-25T19:51:46.649Z,1.55
2023-01-25T19:54:17.799Z,1.57
2023-01-25T19:56:48.269Z,1.64
2023-01-25T19:59:19.518Z,1.58
2023-01-25T20:01:47.897Z,1.60
2023-01-25T20:04:18.611Z,1.60
2023-01-25T20:06:46.649Z,1.62
2023-01-25T20:09:15.959Z,1.63
2023-01-25T20:11:44.174Z,1.65
2023-01-25T20:14:14.472Z,1.67
2023-01-25T20:16:42.218Z,1.65
2023-01-25T20:19:12.972Z,1.66
2023-01-25T20:21:41.149Z,1.66
2023-01-25T20:24:11.197Z,1.68
2023-01-25T20:26:41.160Z,1.74
2023-01-25T20:29:09.536Z,1.77
2023-01-25T20:31:46.046Z,1.83
2023-01-25T20:34:16.855Z,1.85
2023-01-25T20:36:45.436Z,1.90
2023-01-25T20:39:15.909Z,1.93
2023-01-25T20:41:43.983Z,1.95
2023-01-25T20:44:14.437Z,1.93
2023-01-25T20:46:43.623Z,1.90
2023-01-25T20:49:16.586Z,1.89
2023-01-25T20:51:45.078Z,1.89
2023-01-25T20:54:14.503Z,1.84
2023-01-25T20:56:42.556Z,1.81
2023-01-25T20:59:10.334Z,1.79
2023-01-25T21:01:38.189Z,1.83
2023-01-25T21:04:08.763Z,1.86
2023-01-25T21:06:37.054Z,1.91
2023-01-25T21:09:05.882Z,1.87
2023-01-25T21:11:33.904Z,1.87
2023-01-25T21:14:01.976Z,1.81
2023-01-25T21:16:30.165Z,1.75
2023-01-25T21:19:00.278Z,1.72
2023-01-25T21:21:32.917Z,1.72
2023-01-25T21:24:04.056Z,1.64
2023-01-25T21:26:34.014Z,1.58
2023-01-25T21:29:03.280Z,1.53
2023-01-25T21:31:39.391Z,1.50
2023-01-25T21:34:07.672Z,1.50
2023-01-25T21:36:35.412Z,1.47
2023-01-25T21:39:03.139Z,1.43
2023-01-25T21:41:34.407Z,1.42
2023-01-25T21:44:21.955Z,1.43
2023-01-25T21:47:16.327Z,1.48
2023-01-25T21:50:06.573Z,1.46
2023-01-25T21:52:36.465Z,1.56
2023-01-25T21:55:05.806Z,1.60
2023-01-25T21:57:33.520Z,1.61
2023-01-25T22:00:01.737Z,1.64
2023-01-25T22:02:29.583Z,1.69
2023-01-25T22:04:57.280Z,1.64
2023-01-25T22:07:25.581Z,1.64
2023-01-25T22:09:53.295Z,1.64
2023-01-25T22:12:20.993Z,1.64
2023-01-25T22:14:48.713Z,1.67
2023-01-25T22:17:16.432Z,1.64
2023-01-25T22:19:44.209Z,1.64
2023-01-25T22:22:11.948Z,1.64
2023-01-25T22:24:39.704Z,1.64
2023-01-25T22:27:19.401Z,1.61
2023-01-25T22:29:47.048Z,1.62
2023-01-25T22:32:14.786Z,1.64
2023-01-25T22:34:42.565Z,1.65
2023-01-25T22:37:12.798Z,1.67
2023-01-25T22:39:40.481Z,1.72
2023-01-25T22:42:08.196Z,1.70
2023-01-25T22:44:36.825Z,1.73
2023-01-25T22:47:04.580Z,1.74
2023-01-25T22:49:32.223Z,1.74
2023-01-25T22:51:59.965Z,1.66
2023-01-25T22:54:27.667Z,1.63
2023-01-25T22:56:55.304Z,1.65
2023-01-25T22:59:22.941Z,1.70
2023-01-25T23:01:50.693Z,1.71
2023-01-25T23:04:18.433Z,1.68
2023-01-25T23:06:46.200Z,1.65
2023-01-25T23:09:13.952Z,1.61
2023-01-25T23:11:41.786Z,1.60
2023-01-25T23:14:31.701Z,1.64
2023-01-25T23:17:19.434Z,1.63
2023-01-25T23:19:47.157Z,1.63
2023-01-25T23:22:14.903Z,1.61
2023-01-25T23:24:42.623Z,1.62
2023-01-25T23:27:10.304Z,1.62
2023-01-25T23:29:38.400Z,1.61
2023-01-25T23:32:06.342Z,1.61
2023-01-25T23:34:36.684Z,1.62
2023-01-25T23:37:04.977Z,1.63
2023-01-25T23:39:32.677Z,1.63
2023-01-25T23:42:00.317Z,1.61
2023-01-25T23:44:27.996Z,1.64
2023-01-25T23:46:56.022Z,1.69
2023-01-25T23:49:23.728Z,1.73
2023-01-25T23:51:51.467Z,1.73
2023-01-25T23:54:19.145Z,1.69
2023-01-25T23:56:46.872Z,1.64
2023-01-25T23:59:14.594Z,1.60
